createdAt,value
2019-03-16T00:01:59.029Z,1.90
2019-03-16T00:04:02.580Z,2.20
2019-03-16T00:08:09.057Z,1.65
2019-03-16T00:12:15.503Z,2.00
2019-03-16T00:16:21.848Z,1.80
2019-03-16T00:20:28.227Z,1.80
2019-03-16T00:24:34.609Z,1.75
2019-03-16T00:28:40.979Z,1.82
2019-03-16T00:32:47.328Z,1.57
2019-03-16T00:36:53.833Z,2.37
2019-03-16T00:38:57.399Z,2.58
2019-03-16T00:43:03.928Z,2.90
2019-03-16T00:45:09.961Z,2.62
2019-03-16T00:47:13.607Z,2.45
2019-03-16T00:49:18.713Z,2.85
2019-03-16T00:51:22.287Z,2.05
2019-03-16T00:55:28.623Z,2.85
2019-03-16T00:59:35.113Z,2.10
2019-03-16T01:01:38.741Z,1.72
2019-03-16T01:03:42.416Z,1.35
2019-03-16T01:05:45.968Z,1.80
2019-03-16T01:09:52.337Z,1.37
2019-03-16T01:13:58.697Z,1.40
2019-03-16T01:18:05.163Z,1.37
2019-03-16T01:22:13.041Z,1.37
2019-03-16T01:26:19.428Z,1.30
2019-03-16T01:28:22.993Z,1.50
2019-03-16T01:32:39.973Z,1.55
2019-03-16T01:34:34.570Z,1.52
2019-03-16T01:36:38.107Z,1.95
2019-03-16T01:38:41.700Z,1.60
2019-03-16T01:42:50.903Z,1.90
2019-03-16T01:44:54.521Z,1.98
2019-03-16T01:49:01.145Z,1.82
2019-03-16T01:51:04.793Z,1.65
2019-03-16T01:53:08.343Z,2.10
2019-03-16T01:57:14.779Z,1.67
2019-03-16T02:01:22.166Z,1.55
2019-03-16T02:03:25.806Z,1.20
2019-03-16T02:05:29.412Z,1.65
2019-03-16T02:09:35.859Z,1.30
2019-03-16T02:13:42.241Z,1.30
2019-03-16T02:17:48.635Z,1.20
2019-03-16T02:21:55.008Z,1.92
2019-03-16T02:26:01.344Z,1.77
2019-03-16T02:30:11.182Z,1.25
2019-03-16T02:32:14.755Z,1.50
2019-03-16T02:36:21.090Z,1.82
2019-03-16T02:40:27.439Z,1.62
2019-03-16T02:44:33.821Z,1.77
2019-03-16T02:48:40.207Z,1.40
2019-03-16T02:52:49.799Z,1.20
2019-03-16T02:54:51.782Z,2.17
2019-03-16T02:58:58.113Z,1.55
2019-03-16T03:03:04.692Z,1.27
2019-03-16T03:05:09.927Z,1.82
2019-03-16T03:07:15.123Z,1.30
2019-03-16T03:09:18.690Z,1.40
2019-03-16T03:13:25.036Z,1.50
2019-03-16T03:17:31.523Z,1.02
2019-03-16T03:19:36.607Z,1.82
2019-03-16T03:21:40.171Z,1.42
2019-03-16T03:25:46.512Z,1.25
2019-03-16T03:29:57.046Z,1.60
2019-03-16T03:31:58.132Z,1.12
2019-03-16T03:36:06.169Z,1.92
2019-03-16T03:40:13.298Z,2.00
2019-03-16T03:42:16.855Z,1.35
2019-03-16T03:46:23.207Z,1.72
2019-03-16T03:50:29.639Z,1.50
2019-03-16T03:52:33.239Z,1.42
2019-03-16T03:56:39.760Z,1.77
2019-03-16T03:58:43.387Z,1.82
2019-03-16T04:00:49.490Z,1.32
2019-03-16T04:02:53.243Z,1.50
2019-03-16T04:04:56.872Z,1.95
2019-03-16T04:07:00.572Z,1.67
2019-03-16T04:09:06.798Z,1.77
2019-03-16T04:11:10.415Z,1.90
2019-03-16T04:15:16.842Z,2.00
2019-03-16T04:17:20.397Z,2.00
2019-03-16T04:21:26.785Z,1.67
2019-03-16T04:25:33.192Z,2.45
2019-03-16T04:27:36.745Z,2.10
2019-03-16T04:31:43.859Z,2.10
2019-03-16T04:35:50.310Z,1.77
2019-03-16T04:37:53.944Z,1.95
2019-03-16T04:39:57.514Z,1.90
2019-03-16T04:44:03.965Z,1.60
2019-03-16T04:46:07.531Z,1.32
2019-03-16T04:50:14.036Z,2.05
2019-03-16T04:52:17.632Z,2.20
2019-03-16T04:54:21.203Z,1.30
2019-03-16T04:58:27.558Z,2.00
2019-03-16T05:02:33.932Z,2.00
2019-03-16T05:04:42.506Z,1.82
2019-03-16T05:06:42.712Z,2.25
2019-03-16T05:10:49.085Z,2.02
2019-03-16T05:14:55.427Z,1.87
2019-03-16T05:19:01.805Z,1.72
2019-03-16T05:23:08.159Z,1.98
2019-03-16T05:27:14.939Z,1.70
2019-03-16T05:29:18.490Z,2.10
2019-03-16T05:33:24.941Z,2.22
2019-03-16T05:37:31.346Z,2.22
2019-03-16T05:39:34.903Z,2.40
2019-03-16T05:43:41.277Z,1.92
2019-03-16T05:47:47.620Z,2.40
2019-03-16T05:51:53.979Z,2.70
2019-03-16T05:56:00.356Z,2.30
2019-03-16T06:00:15.633Z,2.35
2019-03-16T06:02:19.250Z,2.75
2019-03-16T06:04:22.835Z,2.37
2019-03-16T06:08:30.830Z,1.95
2019-03-16T06:12:37.202Z,1.95
2019-03-16T06:16:43.682Z,2.62
2019-03-16T06:18:47.244Z,2.15
2019-03-16T06:22:53.686Z,2.22
2019-03-16T06:24:57.240Z,2.22
2019-03-16T06:29:03.782Z,2.50
2019-03-16T06:33:10.175Z,2.10
2019-03-16T06:37:18.309Z,2.37
2019-03-16T06:39:21.888Z,2.75
2019-03-16T06:43:28.250Z,2.40
2019-03-16T06:47:34.609Z,2.17
2019-03-16T06:51:40.974Z,2.35
2019-03-16T06:55:47.347Z,2.77
2019-03-16T06:59:53.962Z,2.85
2019-03-16T07:01:57.563Z,2.42
2019-03-16T07:06:04.067Z,4.03
2019-03-16T07:08:07.649Z,3.00
2019-03-16T07:12:15.623Z,2.15
2019-03-16T07:16:21.992Z,2.37
2019-03-16T07:20:28.485Z,2.10
2019-03-16T07:22:32.073Z,2.77
2019-03-16T07:26:38.461Z,2.77
2019-03-16T07:30:44.911Z,3.02
2019-03-16T07:32:48.477Z,2.15
2019-03-16T07:36:54.914Z,2.70
2019-03-16T07:41:01.544Z,2.37
2019-03-16T07:43:05.210Z,3.10
2019-03-16T07:45:10.213Z,4.95
2019-03-16T07:47:15.440Z,3.00
2019-03-16T07:49:19.028Z,2.85
2019-03-16T07:53:25.380Z,2.08
2019-03-16T07:57:39.981Z,2.37
2019-03-16T07:59:37.399Z,2.90
2019-03-16T08:01:41.065Z,2.50
2019-03-16T08:05:47.421Z,2.12
2019-03-16T08:09:53.820Z,2.25
2019-03-16T08:14:00.247Z,2.40
2019-03-16T08:16:03.909Z,2.50
2019-03-16T08:18:08.087Z,2.50
2019-03-16T08:20:12.289Z,2.77
2019-03-16T08:22:15.846Z,2.40
2019-03-16T08:26:22.392Z,2.55
2019-03-16T08:28:25.947Z,2.65
2019-03-16T08:32:32.425Z,2.80
2019-03-16T08:34:36.027Z,3.12
2019-03-16T08:38:42.441Z,2.33
2019-03-16T08:42:51.331Z,2.50
2019-03-16T08:44:54.186Z,2.30
2019-03-16T08:49:00.535Z,2.62
2019-03-16T08:53:07.211Z,2.67
2019-03-16T08:57:13.935Z,3.12
2019-03-16T08:59:17.493Z,2.47
2019-03-16T09:03:23.960Z,3.20
2019-03-16T09:05:27.520Z,2.92
2019-03-16T09:09:33.903Z,4.65
2019-03-16T09:13:41.002Z,3.22
2019-03-16T09:15:48.499Z,2.60
2019-03-16T09:17:56.021Z,2.70
2019-03-16T09:19:59.878Z,2.83
2019-03-16T09:22:03.444Z,2.52
2019-03-16T09:26:09.869Z,3.27
2019-03-16T09:30:18.266Z,2.80
2019-03-16T09:32:22.099Z,2.60
2019-03-16T09:34:25.594Z,2.40
2019-03-16T09:38:31.938Z,3.10
2019-03-16T09:42:38.415Z,2.37
2019-03-16T09:46:44.845Z,3.45
2019-03-16T09:50:51.322Z,2.87
2019-03-16T09:54:57.687Z,2.72
2019-03-16T09:59:05.511Z,2.60
2019-03-16T10:03:12.013Z,3.02
2019-03-16T10:07:18.416Z,2.95
2019-03-16T10:11:24.829Z,2.25
2019-03-16T10:15:31.270Z,2.25
2019-03-16T10:19:37.766Z,2.15
2019-03-16T10:23:44.224Z,2.02
2019-03-16T10:27:50.707Z,1.90
2019-03-16T10:29:54.368Z,2.45
2019-03-16T10:34:01.030Z,3.45
2019-03-16T10:36:04.676Z,2.80
2019-03-16T10:40:15.485Z,2.50
2019-03-16T10:42:19.179Z,2.75
2019-03-16T10:44:22.751Z,3.35
2019-03-16T10:48:29.116Z,3.27
2019-03-16T10:52:35.458Z,3.10
2019-03-16T10:56:41.834Z,2.58
2019-03-16T11:00:49.867Z,2.55
2019-03-16T11:04:56.218Z,3.10
2019-03-16T11:09:02.711Z,3.10
2019-03-16T11:11:06.340Z,2.98
2019-03-16T11:15:13.925Z,2.67
2019-03-16T11:17:17.468Z,3.00
2019-03-16T11:21:23.847Z,3.17
2019-03-16T11:25:30.235Z,2.72
2019-03-16T11:29:36.600Z,3.17
2019-03-16T11:33:42.980Z,2.95
2019-03-16T11:37:49.389Z,2.90
2019-03-16T11:41:55.727Z,3.12
2019-03-16T11:46:02.103Z,3.02
2019-03-16T11:50:12.033Z,2.83
2019-03-16T11:52:15.611Z,2.77
2019-03-16T11:56:22.020Z,2.62
2019-03-16T12:00:28.394Z,2.42
2019-03-16T12:04:34.807Z,2.10
2019-03-16T12:08:41.288Z,2.62
2019-03-16T12:10:44.934Z,2.37
2019-03-16T12:14:51.302Z,2.70
2019-03-16T12:18:57.646Z,2.20
2019-03-16T12:23:04.104Z,2.58
2019-03-16T12:27:10.671Z,2.30
2019-03-16T12:31:17.050Z,1.60
2019-03-16T12:35:23.419Z,2.27
2019-03-16T12:39:29.767Z,2.58
2019-03-16T12:43:36.119Z,2.27
2019-03-16T12:47:42.507Z,2.30
2019-03-16T12:51:48.897Z,1.80
2019-03-16T12:55:55.566Z,1.80
2019-03-16T12:57:59.155Z,2.70
2019-03-16T13:02:05.623Z,2.10
2019-03-16T13:04:09.228Z,3.58
2019-03-16T13:08:15.759Z,3.10
2019-03-16T13:12:22.677Z,2.37
2019-03-16T13:16:29.036Z,1.60
2019-03-16T13:20:35.531Z,1.70
2019-03-16T13:24:44.670Z,1.55
2019-03-16T13:26:48.218Z,2.12
2019-03-16T13:30:54.611Z,1.67
2019-03-16T13:35:00.996Z,1.40
2019-03-16T13:39:07.494Z,1.65
2019-03-16T13:41:11.628Z,2.10
2019-03-16T13:43:15.818Z,1.98
2019-03-16T13:45:20.205Z,2.95
2019-03-16T13:47:24.402Z,1.80
2019-03-16T13:49:28.757Z,1.80
2019-03-16T13:51:32.329Z,1.90
2019-03-16T13:55:39.010Z,2.00
2019-03-16T13:59:45.618Z,1.85
2019-03-16T14:03:52.014Z,1.42
2019-03-16T14:07:58.490Z,1.75
2019-03-16T14:10:02.246Z,1.45
2019-03-16T14:14:08.628Z,1.70
2019-03-16T14:18:14.953Z,1.72
2019-03-16T14:22:21.345Z,2.33
2019-03-16T14:26:27.955Z,2.00
2019-03-16T14:30:40.919Z,2.60
2019-03-16T14:32:39.658Z,2.45
2019-03-16T14:36:46.033Z,2.30
2019-03-16T14:40:52.480Z,4.67
2019-03-16T14:44:59.041Z,3.10
2019-03-16T14:49:05.484Z,3.80
2019-03-16T14:53:11.980Z,1.95
2019-03-16T14:57:18.486Z,2.33
2019-03-16T15:01:24.860Z,2.20
2019-03-16T15:05:31.206Z,2.37
2019-03-16T15:09:37.685Z,2.52
2019-03-16T15:13:44.061Z,3.00
2019-03-16T15:17:50.405Z,2.55
2019-03-16T15:21:56.756Z,2.40
2019-03-16T15:26:05.906Z,2.60
2019-03-16T15:28:09.474Z,3.85
2019-03-16T15:32:17.152Z,3.37
2019-03-16T15:34:20.700Z,3.65
2019-03-16T15:38:27.207Z,4.85
2019-03-16T15:40:30.803Z,4.45
2019-03-16T15:44:38.274Z,5.00
2019-03-16T15:46:42.042Z,5.42
2019-03-16T15:48:46.517Z,10.25
2019-03-16T15:52:52.951Z,6.78
2019-03-16T15:56:59.394Z,7.15
2019-03-16T16:01:05.907Z,7.97
2019-03-16T16:03:09.528Z,10.48
2019-03-16T16:07:15.885Z,6.40
2019-03-16T16:11:22.402Z,6.95
2019-03-16T16:13:26.021Z,13.70
2019-03-16T16:17:38.094Z,7.30
2019-03-16T16:19:43.622Z,8.08
2019-03-16T16:21:48.641Z,6.37
2019-03-16T16:23:55.710Z,6.50
2019-03-16T16:26:02.300Z,7.55
2019-03-16T16:28:05.867Z,9.50
2019-03-16T16:32:13.775Z,8.33
2019-03-16T16:36:20.231Z,7.80
2019-03-16T16:40:26.702Z,10.65
2019-03-16T16:42:30.279Z,9.35
2019-03-16T16:46:36.632Z,10.38
2019-03-16T16:50:43.099Z,11.12
2019-03-16T16:52:46.662Z,13.05
2019-03-16T16:56:53.107Z,23.32
2019-03-16T16:58:56.762Z,51.33
2019-03-16T17:01:04.323Z,53.30
2019-03-16T17:03:07.886Z,84.25
2019-03-16T17:07:14.384Z,37.90
2019-03-16T17:11:20.790Z,129.57
2019-03-16T17:13:24.413Z,62.40
2019-03-16T17:17:35.507Z,59.03
2019-03-16T17:19:37.731Z,27.90
2019-03-16T17:21:41.302Z,18.85
2019-03-16T17:25:47.665Z,25.88
2019-03-16T17:29:54.110Z,15.83
2019-03-16T17:34:00.493Z,26.45
2019-03-16T17:38:06.945Z,35.28
2019-03-16T17:42:14.832Z,23.00
2019-03-16T17:46:21.287Z,22.40
2019-03-16T17:50:27.757Z,17.87
2019-03-16T17:52:31.396Z,23.55
2019-03-16T17:54:34.963Z,18.73
2019-03-16T17:58:41.363Z,20.85
2019-03-16T18:02:51.693Z,13.40
2019-03-16T18:04:53.038Z,14.15
2019-03-16T18:09:01.752Z,15.15
2019-03-16T18:11:05.061Z,17.50
2019-03-16T18:13:11.216Z,20.12
2019-03-16T18:15:19.324Z,19.57
2019-03-16T18:17:22.878Z,18.37
2019-03-16T18:21:29.372Z,17.32
2019-03-16T18:23:32.998Z,19.87
2019-03-16T18:25:37.811Z,20.88
2019-03-16T18:27:41.894Z,21.87
2019-03-16T18:29:45.556Z,23.95
2019-03-16T18:31:49.272Z,23.20
2019-03-16T18:33:52.966Z,25.65
2019-03-16T18:35:56.522Z,26.65
2019-03-16T18:38:00.175Z,27.27
2019-03-16T18:40:04.230Z,27.62
2019-03-16T18:42:07.900Z,28.85
2019-03-16T18:44:26.336Z,28.30
2019-03-16T18:46:30.045Z,28.62
2019-03-16T18:48:33.725Z,25.40
2019-03-16T18:50:37.367Z,25.88
2019-03-16T18:52:40.928Z,26.77
2019-03-16T18:56:47.323Z,28.40
2019-03-16T19:00:53.836Z,27.37
2019-03-16T19:02:57.423Z,25.02
2019-03-16T19:05:01.024Z,24.47
2019-03-16T19:09:08.709Z,25.43
2019-03-16T19:11:12.434Z,24.55
2019-03-16T19:13:16.259Z,26.10
2019-03-16T19:15:20.147Z,25.70
2019-03-16T19:17:23.790Z,25.52
2019-03-16T19:19:27.393Z,25.17
2019-03-16T19:23:33.887Z,25.08
2019-03-16T19:25:37.692Z,25.55
2019-03-16T19:27:41.335Z,25.57
2019-03-16T19:29:45.091Z,26.10
2019-03-16T19:31:48.727Z,30.50
2019-03-16T19:33:53.049Z,27.87
2019-03-16T19:35:56.673Z,25.02
2019-03-16T19:40:03.174Z,26.23
2019-03-16T19:44:09.627Z,27.65
2019-03-16T19:46:13.195Z,31.73
2019-03-16T19:50:19.703Z,29.77
2019-03-16T19:52:23.299Z,35.73
2019-03-16T19:56:29.679Z,29.95
2019-03-16T20:00:36.058Z,32.10
2019-03-16T20:04:44.155Z,32.10
2019-03-16T20:06:47.743Z,31.45
2019-03-16T20:11:05.972Z,29.90
2019-03-16T20:12:59.352Z,30.00
2019-03-16T20:17:05.773Z,31.37
2019-03-16T20:21:12.119Z,31.48
2019-03-16T20:25:21.308Z,34.05
2019-03-16T20:27:24.866Z,32.63
2019-03-16T20:31:31.306Z,35.73
2019-03-16T20:33:34.874Z,36.70
2019-03-16T20:37:41.281Z,37.55
2019-03-16T20:41:47.635Z,37.50
2019-03-16T20:45:54.063Z,32.08
2019-03-16T20:50:00.715Z,34.03
2019-03-16T20:54:07.500Z,31.17
2019-03-16T20:56:11.134Z,32.78
2019-03-16T20:58:14.717Z,31.07
2019-03-16T21:02:23.904Z,30.12
2019-03-16T21:06:30.535Z,31.40
2019-03-16T21:08:34.128Z,33.60
2019-03-16T21:12:40.522Z,33.30
2019-03-16T21:14:44.202Z,36.63
2019-03-16T21:18:50.575Z,37.90
2019-03-16T21:22:56.941Z,40.08
2019-03-16T21:27:03.311Z,42.95
2019-03-16T21:31:09.688Z,38.58
2019-03-16T21:35:16.267Z,30.68
2019-03-16T21:37:21.483Z,31.02
2019-03-16T21:39:25.172Z,31.25
2019-03-16T21:43:31.618Z,28.87
2019-03-16T21:45:35.175Z,26.65
2019-03-16T21:49:41.679Z,21.80
2019-03-16T21:51:45.407Z,22.67
2019-03-16T21:53:49.108Z,20.85
2019-03-16T21:57:55.452Z,17.77
2019-03-16T22:02:01.831Z,20.85
2019-03-16T22:06:08.712Z,20.20
2019-03-16T22:08:12.322Z,22.27
2019-03-16T22:10:16.829Z,21.15
2019-03-16T22:12:20.478Z,22.67
2019-03-16T22:14:24.067Z,21.57
2019-03-16T22:18:30.484Z,20.80
2019-03-16T22:22:36.959Z,21.93
2019-03-16T22:24:40.521Z,21.97
2019-03-16T22:28:46.875Z,19.80
2019-03-16T22:32:53.251Z,20.70
2019-03-16T22:36:59.885Z,18.77
2019-03-16T22:41:06.443Z,19.02
2019-03-16T22:43:10.097Z,19.32
2019-03-16T22:45:14.548Z,18.87
2019-03-16T22:47:18.103Z,20.43
2019-03-16T22:51:24.539Z,20.55
2019-03-16T22:55:31.081Z,19.37
2019-03-16T22:57:34.656Z,20.35
2019-03-16T23:01:41.315Z,19.17
2019-03-16T23:03:44.960Z,19.55
2019-03-16T23:05:48.687Z,20.65
2019-03-16T23:07:52.309Z,20.92
2019-03-16T23:11:58.663Z,20.00
2019-03-16T23:16:05.187Z,20.12
2019-03-16T23:18:08.965Z,22.98
2019-03-16T23:20:12.693Z,22.20
2019-03-16T23:22:16.258Z,23.27
2019-03-16T23:26:22.692Z,20.90
2019-03-16T23:30:29.194Z,19.90
2019-03-16T23:32:32.834Z,21.65
2019-03-16T23:36:39.316Z,21.57
2019-03-16T23:38:42.908Z,21.45
2019-03-16T23:42:49.500Z,22.22
2019-03-16T23:44:53.226Z,22.58
2019-03-16T23:46:56.765Z,22.65
2019-03-16T23:51:03.142Z,21.75
2019-03-16T23:55:10.124Z,21.37
2019-03-16T23:57:13.807Z,22.52
2019-03-16T23:59:17.532Z,21.85
